createdAt,value
2019-02-17T00:00:51.728Z,16.72
2019-02-17T00:05:59.374Z,17.50
2019-02-17T00:11:07.026Z,17.20
2019-02-17T00:16:14.716Z,17.19
2019-02-17T00:21:22.462Z,17.31
2019-02-17T00:26:30.149Z,17.39
2019-02-17T00:31:37.838Z,17.19
2019-02-17T00:36:46.414Z,17.55
2019-02-17T00:41:54.941Z,17.34
2019-02-17T00:47:02.717Z,18.01
2019-02-17T00:52:10.421Z,17.32
2019-02-17T00:57:18.147Z,17.59
2019-02-17T01:02:25.873Z,18.14
2019-02-17T01:07:33.541Z,17.87
2019-02-17T01:12:41.245Z,16.55
2019-02-17T01:17:48.822Z,16.75
2019-02-17T01:22:56.456Z,17.22
2019-02-17T01:28:04.217Z,17.14
2019-02-17T01:33:11.870Z,17.42
2019-02-17T01:38:19.578Z,17.20
2019-02-17T01:43:27.259Z,17.07
2019-02-17T01:48:35.123Z,18.11
2019-02-17T01:53:42.728Z,17.05
2019-02-17T01:58:50.457Z,16.77
2019-02-17T02:03:58.180Z,17.07
2019-02-17T02:09:05.917Z,17.70
2019-02-17T02:14:13.529Z,16.70
2019-02-17T02:19:21.284Z,16.92
2019-02-17T02:24:28.875Z,16.67
2019-02-17T02:29:40.983Z,16.96
2019-02-17T02:34:44.319Z,17.82
2019-02-17T02:39:52.113Z,17.90
2019-02-17T02:44:59.818Z,17.56
2019-02-17T02:50:07.712Z,17.62
2019-02-17T02:55:15.447Z,17.34
2019-02-17T03:00:23.317Z,17.37
2019-02-17T03:05:30.946Z,17.47
2019-02-17T03:10:38.670Z,17.10
2019-02-17T03:15:46.293Z,17.56
2019-02-17T03:20:53.994Z,17.77
2019-02-17T03:26:01.732Z,18.40
2019-02-17T03:31:09.783Z,18.20
2019-02-17T03:36:17.378Z,18.63
2019-02-17T03:41:25.283Z,17.66
2019-02-17T03:46:32.995Z,17.88
2019-02-17T03:51:40.695Z,18.10
2019-02-17T03:56:48.345Z,18.37
2019-02-17T04:01:56.500Z,18.13
2019-02-17T04:07:04.105Z,18.78
2019-02-17T04:12:11.941Z,18.88
2019-02-17T04:17:19.674Z,18.57
2019-02-17T04:22:27.511Z,18.92
2019-02-17T04:27:35.131Z,19.11
2019-02-17T04:32:42.922Z,19.15
2019-02-17T04:37:50.547Z,19.06
2019-02-17T04:42:58.481Z,18.64
2019-02-17T04:48:06.437Z,18.38
2019-02-17T04:53:14.164Z,18.08
2019-02-17T04:58:21.753Z,18.56
2019-02-17T05:03:29.500Z,17.77
2019-02-17T05:08:37.187Z,18.73
2019-02-17T05:13:44.789Z,18.19
2019-02-17T05:18:52.435Z,19.05
2019-02-17T05:24:00.094Z,19.44
2019-02-17T05:29:07.934Z,18.60
2019-02-17T05:34:15.638Z,18.88
2019-02-17T05:39:23.415Z,18.71
2019-02-17T05:44:31.069Z,17.57
2019-02-17T05:49:38.789Z,17.70
2019-02-17T05:54:46.403Z,17.20
2019-02-17T05:59:54.286Z,17.76
2019-02-17T06:05:02.341Z,17.90
2019-02-17T06:10:10.165Z,19.01
2019-02-17T06:15:17.850Z,18.48
2019-02-17T06:20:25.641Z,19.49
2019-02-17T06:25:33.287Z,19.31
2019-02-17T06:30:40.970Z,17.80
2019-02-17T06:35:48.642Z,18.31
2019-02-17T06:40:56.386Z,18.18
2019-02-17T06:46:03.998Z,18.48
2019-02-17T06:51:11.754Z,18.82
2019-02-17T06:56:19.490Z,19.87
2019-02-17T07:01:56.825Z,20.21
2019-02-17T07:07:04.549Z,18.49
2019-02-17T07:12:12.170Z,18.42
2019-02-17T07:17:19.834Z,18.14
2019-02-17T07:22:27.545Z,18.24
2019-02-17T07:27:35.335Z,17.97
2019-02-17T07:32:42.973Z,19.32
2019-02-17T07:37:50.569Z,19.70
2019-02-17T07:42:58.357Z,20.53
2019-02-17T07:48:05.930Z,19.88
2019-02-17T07:53:17.161Z,19.19
2019-02-17T07:58:14.743Z,21.06
2019-02-17T08:03:22.476Z,20.81
2019-02-17T08:08:30.146Z,21.48
2019-02-17T08:13:38.770Z,21.59
2019-02-17T08:18:46.470Z,21.53
2019-02-17T08:23:54.266Z,21.90
2019-02-17T08:29:01.853Z,21.78
2019-02-17T08:34:10.068Z,21.00
2019-02-17T08:39:17.774Z,20.91
2019-02-17T08:44:25.424Z,20.28
2019-02-17T08:49:33.109Z,21.57
2019-02-17T08:54:40.909Z,20.53
2019-02-17T08:59:48.507Z,19.83
2019-02-17T09:04:56.158Z,18.61
2019-02-17T09:10:03.946Z,18.84
2019-02-17T09:15:11.656Z,17.90
2019-02-17T09:20:19.305Z,18.03
2019-02-17T09:25:27.069Z,17.50
2019-02-17T09:30:34.834Z,16.84
2019-02-17T09:35:42.467Z,23.78
2019-02-17T09:40:50.177Z,15.84
2019-02-17T09:45:57.866Z,15.59
2019-02-17T09:51:05.526Z,15.25
2019-02-17T09:56:13.286Z,14.94
2019-02-17T10:01:20.927Z,14.61
2019-02-17T10:06:28.541Z,13.94
2019-02-17T10:11:36.183Z,13.48
2019-02-17T10:16:43.931Z,13.44
2019-02-17T10:21:51.619Z,13.40
2019-02-17T10:26:59.468Z,12.91
2019-02-17T10:32:07.118Z,19.09
2019-02-17T10:37:14.834Z,12.66
2019-02-17T10:42:22.575Z,11.83
2019-02-17T10:47:30.228Z,12.04
2019-02-17T10:52:38.133Z,12.29
2019-02-17T10:57:45.861Z,17.75
2019-02-17T11:02:53.677Z,12.31
2019-02-17T11:08:01.370Z,12.45
2019-02-17T11:13:09.137Z,12.55
2019-02-17T11:18:16.793Z,12.65
2019-02-17T11:23:24.562Z,12.58
2019-02-17T11:28:32.262Z,12.12
2019-02-17T11:33:39.883Z,11.70
2019-02-17T11:38:47.606Z,12.62
2019-02-17T11:43:55.193Z,12.46
2019-02-17T11:49:02.911Z,12.38
2019-02-17T11:54:10.625Z,12.77
2019-02-17T11:59:18.312Z,12.16
2019-02-17T12:04:26.014Z,12.84
2019-02-17T12:09:33.641Z,12.66
2019-02-17T12:14:41.454Z,12.44
2019-02-17T12:19:49.085Z,12.40
2019-02-17T12:24:56.785Z,11.94
2019-02-17T12:30:04.796Z,12.41
2019-02-17T12:35:12.996Z,12.36
2019-02-17T12:40:20.562Z,12.47
2019-02-17T12:45:28.262Z,12.68
2019-02-17T12:50:35.937Z,13.67
2019-02-17T12:55:43.711Z,13.37
2019-02-17T13:00:51.377Z,13.01
2019-02-17T13:05:59.217Z,13.12
2019-02-17T13:11:06.912Z,12.51
2019-02-17T13:16:14.702Z,13.22
2019-02-17T13:21:22.366Z,14.17
2019-02-17T13:26:30.454Z,14.25
2019-02-17T13:31:38.126Z,13.96
2019-02-17T13:36:46.070Z,14.01
2019-02-17T13:41:53.626Z,13.79
2019-02-17T13:47:01.633Z,14.15
2019-02-17T13:52:09.308Z,14.18
2019-02-17T13:57:16.938Z,14.25
2019-02-17T14:02:24.561Z,14.35
2019-02-17T14:07:32.327Z,14.82
2019-02-17T14:12:39.982Z,14.00
2019-02-17T14:17:47.902Z,13.42
2019-02-17T14:22:55.541Z,13.96
2019-02-17T14:28:03.586Z,13.25
2019-02-17T14:33:11.359Z,15.09
2019-02-17T14:38:19.206Z,14.34
2019-02-17T14:43:26.793Z,13.80
2019-02-17T14:48:34.438Z,14.17
2019-02-17T14:53:42.006Z,13.03
2019-02-17T14:58:49.805Z,13.33
2019-02-17T15:03:57.897Z,14.05
2019-02-17T15:09:05.710Z,13.96
2019-02-17T15:14:13.414Z,13.12
2019-02-17T15:19:21.006Z,13.86
2019-02-17T15:24:28.657Z,13.72
2019-02-17T15:29:36.343Z,13.78
2019-02-17T15:34:43.948Z,13.97
2019-02-17T15:39:51.639Z,13.94
2019-02-17T15:44:59.304Z,13.92
2019-02-17T15:50:07.061Z,13.02
2019-02-17T15:55:14.655Z,13.00
2019-02-17T16:00:22.366Z,13.00
2019-02-17T16:05:29.990Z,13.56
2019-02-17T16:10:37.656Z,13.95
2019-02-17T16:15:45.393Z,14.25
2019-02-17T16:20:53.169Z,14.07
2019-02-17T16:26:01.189Z,14.77
2019-02-17T16:31:09.131Z,14.93
2019-02-17T16:36:16.897Z,14.90
2019-02-17T16:41:24.613Z,17.57
2019-02-17T16:46:32.253Z,19.26
2019-02-17T16:51:39.983Z,15.70
2019-02-17T16:56:48.082Z,16.01
2019-02-17T17:01:54.866Z,24.40
2019-02-17T17:07:02.450Z,18.68
2019-02-17T17:12:10.075Z,16.57
2019-02-17T17:17:17.850Z,26.84
2019-02-17T17:22:25.531Z,22.10
2019-02-17T17:27:33.258Z,27.95
2019-02-17T17:32:41.200Z,28.61
2019-02-17T17:37:49.306Z,16.85
2019-02-17T17:42:57.084Z,16.11
2019-02-17T17:48:04.841Z,15.51
2019-02-17T17:53:12.621Z,15.87
2019-02-17T17:58:20.338Z,15.99
2019-02-17T18:03:28.004Z,17.49
2019-02-17T18:08:35.631Z,17.49
2019-02-17T18:13:43.353Z,17.10
2019-02-17T18:18:50.986Z,16.80
2019-02-17T18:23:58.665Z,16.31
2019-02-17T18:29:06.515Z,16.09
2019-02-17T18:34:14.224Z,16.18
2019-02-17T18:39:22.755Z,16.96
2019-02-17T18:44:30.422Z,16.72
2019-02-17T18:49:38.215Z,19.83
2019-02-17T18:54:45.850Z,17.25
2019-02-17T18:59:53.563Z,18.25
2019-02-17T19:05:01.221Z,36.42
2019-02-17T19:10:08.910Z,36.96
2019-02-17T19:15:16.589Z,22.95
2019-02-17T19:20:25.382Z,26.14
2019-02-17T19:25:33.089Z,23.24
2019-02-17T19:30:40.923Z,18.88
2019-02-17T19:35:48.703Z,26.94
2019-02-17T19:40:56.873Z,20.79
2019-02-17T19:46:05.569Z,18.35
2019-02-17T19:51:13.235Z,17.85
2019-02-17T19:56:20.991Z,17.39
2019-02-17T20:01:28.645Z,18.32
2019-02-17T20:06:37.174Z,17.69
2019-02-17T20:11:44.801Z,17.44
2019-02-17T20:16:52.594Z,17.29
2019-02-17T20:22:00.247Z,16.57
2019-02-17T20:27:08.951Z,16.26
2019-02-17T20:32:16.574Z,16.28
2019-02-17T20:37:25.413Z,16.15
2019-02-17T20:42:31.569Z,16.06
2019-02-17T20:47:39.781Z,16.04
2019-02-17T20:52:47.503Z,15.84
2019-02-17T20:57:55.309Z,15.50
2019-02-17T21:03:02.915Z,15.72
2019-02-17T21:08:10.598Z,16.05
2019-02-17T21:13:18.290Z,15.81
2019-02-17T21:18:25.993Z,16.02
2019-02-17T21:23:33.702Z,15.66
2019-02-17T21:28:41.473Z,22.91
2019-02-17T21:33:49.187Z,15.58
2019-02-17T21:38:58.782Z,15.71
2019-02-17T21:44:04.117Z,15.56
2019-02-17T21:49:11.797Z,15.27
2019-02-17T21:54:19.526Z,15.71
2019-02-17T21:59:27.229Z,15.74
2019-02-17T22:04:35.872Z,15.77
2019-02-17T22:09:42.160Z,15.90
2019-02-17T22:14:49.875Z,15.94
2019-02-17T22:19:57.618Z,15.53
2019-02-17T22:25:05.389Z,16.33
2019-02-17T22:30:13.089Z,16.36
2019-02-17T22:35:20.725Z,15.31
2019-02-17T22:40:28.494Z,16.28
2019-02-17T22:45:36.083Z,15.62
2019-02-17T22:50:43.737Z,15.56
2019-02-17T22:55:51.363Z,15.73
2019-02-17T23:00:58.965Z,15.80
2019-02-17T23:06:06.601Z,15.37
2019-02-17T23:11:14.391Z,15.20
2019-02-17T23:17:12.825Z,16.24
2019-02-17T23:22:20.485Z,14.81
2019-02-17T23:27:28.103Z,14.69
2019-02-17T23:32:35.964Z,15.01
2019-02-17T23:37:44.396Z,15.22
2019-02-17T23:42:52.018Z,14.59
2019-02-17T23:47:59.707Z,14.78
2019-02-17T23:53:07.298Z,14.65
2019-02-17T23:58:14.963Z,14.25
